Time;durP1;ratioP1;P1;durP2;ratioP2;P2;SDS_P1;SDS_P2;PMS_P1;PMS_P2;Temp;Humidity;BMP_temperature;BMP_pressure;BME280_temperature;BME280_humidity;BME280_pressure;Samples;Min_cycle;Max_cycle;Signal;HPM_P1;HPM_P2
2023/09/13 00:00:54;;;;;;;5.35;4.40;;;;;;;26.89;44.30;98805.03;2076192;28;20059;-62
2023/09/13 00:01:55;;;;;;;4.40;3.83;;;;;;;26.91;43.82;98802.88;2071166;28;20524;-62
2023/09/13 00:02:57;;;;;;;5.13;4.07;;;;;;;26.89;43.87;98805.03;2076890;28;20049;-62
2023/09/13 00:03:58;;;;;;;7.07;5.07;;;;;;;26.91;43.61;98796.59;2074080;28;20053;-62
2023/09/13 00:05:00;;;;;;;4.47;3.97;;;;;;;26.96;44.01;98804.81;2073481;28;20077;-62
2023/09/13 00:06:01;;;;;;;7.50;4.55;;;;;;;26.92;44.05;98800.97;2074066;28;20057;-62
2023/09/13 00:07:03;;;;;;;5.97;4.63;;;;;;;26.89;43.95;98810.47;2073651;28;20158;-62
2023/09/13 00:08:04;;;;;;;4.80;4.30;;;;;;;26.85;43.87;98805.78;2074708;28;20053;-62
2023/09/13 00:09:08;;;;;;;5.78;3.83;;;;;;;26.82;44.33;98809.84;2078241;28;20048;-62
2023/09/13 00:10:09;;;;;;;8.07;4.07;;;;;;;26.91;44.13;98808.34;2075621;28;20049;-62
2023/09/13 00:11:11;;;;;;;5.38;3.90;;;;;;;26.92;43.91;98815.41;2078907;28;20081;-62
2023/09/13 00:12:12;;;;;;;6.10;4.82;;;;;;;26.89;43.92;98815.09;2079057;28;20136;-62
2023/09/13 00:13:15;;;;;;;5.75;4.28;;;;;;;26.86;44.28;98816.44;2078415;28;20049;-62
2023/09/13 00:14:15;;;;;;;4.72;4.00;;;;;;;26.86;44.09;98805.53;2077389;28;20049;-62
2023/09/13 00:15:17;;;;;;;5.43;4.10;;;;;;;26.85;44.11;98820.22;2075562;28;20091;-62
2023/09/13 00:16:20;;;;;;;6.50;4.40;;;;;;;26.85;44.32;98814.75;2075188;28;20128;-62
2023/09/13 00:17:23;;;;;;;6.68;4.30;;;;;;;26.87;44.15;98814.53;2079157;28;20049;-62
2023/09/13 00:18:24;;;;;;;6.30;4.38;;;;;;;26.86;44.36;98808.25;2078139;28;20057;-62
2023/09/13 00:19:27;;;;;;;6.55;4.50;;;;;;;26.86;44.29;98811.00;2077768;28;20464;-62
2023/09/13 00:20:27;;;;;;;6.22;3.80;;;;;;;26.87;44.03;98811.81;2076594;28;20150;-62
2023/09/13 00:21:29;;;;;;;4.93;3.88;;;;;;;26.91;44.30;98821.94;2076973;28;20111;-62
2023/09/13 00:22:30;;;;;;;4.65;4.15;;;;;;;26.91;44.30;98815.66;2076973;28;20049;-62
2023/09/13 00:23:32;;;;;;;5.90;3.92;;;;;;;26.89;44.19;98813.19;2075312;28;20049;-62
2023/09/13 00:24:33;;;;;;;6.25;4.75;;;;;;;26.91;44.44;98821.94;2076092;28;20045;-62
2023/09/13 00:25:35;;;;;;;7.68;4.47;;;;;;;26.87;44.00;98818.06;2075406;28;20476;-62
2023/09/13 00:26:36;;;;;;;5.15;4.13;;;;;;;26.88;44.36;98825.16;2077804;28;20041;-62
2023/09/13 00:27:37;;;;;;;6.68;4.32;;;;;;;26.84;44.45;98821.28;2073186;28;20078;-62
2023/09/13 00:28:38;;;;;;;5.85;4.05;;;;;;;26.86;44.30;98816.44;2074641;28;20057;-62
2023/09/13 00:29:40;;;;;;;5.78;4.30;;;;;;;26.89;44.27;98820.53;2075144;28;20471;-62
2023/09/13 00:30:41;;;;;;;3.78;3.40;;;;;;;26.88;44.05;98822.41;2075434;28;20061;-62
2023/09/13 00:31:44;;;;;;;6.10;4.35;;;;;;;26.88;44.06;98821.59;2075060;28;20431;-62
2023/09/13 00:32:45;;;;;;;6.18;4.05;;;;;;;26.88;43.87;98824.31;2076703;28;20077;-62
2023/09/13 00:33:46;;;;;;;4.35;3.95;;;;;;;26.88;43.97;98816.97;2075826;28;20054;-62
2023/09/13 00:34:48;;;;;;;4.63;4.22;;;;;;;26.87;44.02;98820.78;2076509;28;20090;-62
2023/09/13 00:35:54;;;;;;;5.28;4.45;;;;;;;26.84;43.97;98823.19;2074212;28;20064;-62
2023/09/13 00:36:56;;;;;;;7.60;4.72;;;;;;;26.83;44.02;98824.25;2076467;28;20080;-62
2023/09/13 00:37:57;;;;;;;4.03;3.53;;;;;;;26.84;43.90;98818.56;2074071;28;20455;-62
2023/09/13 00:38:58;;;;;;;4.10;3.75;;;;;;;26.86;44.35;98819.16;2076273;28;20049;-62
2023/09/13 00:39:59;;;;;;;4.78;4.15;;;;;;;26.86;44.06;98816.44;2072040;28;20049;-62
2023/09/13 00:41:01;;;;;;;7.18;4.38;;;;;;;26.85;44.39;98813.94;2075587;28;20140;-62
2023/09/13 00:42:02;;;;;;;7.53;4.22;;;;;;;26.83;44.43;98811.50;2073239;28;20068;-62
2023/09/13 00:43:03;;;;;;;6.47;4.80;;;;;;;26.86;44.21;98811.00;2075772;28;20081;-62
2023/09/13 00:44:05;;;;;;;4.70;4.05;;;;;;;26.85;44.02;98812.03;2072645;28;20054;-62
2023/09/13 00:45:07;;;;;;;6.03;4.78;;;;;;;26.85;43.88;98811.22;2075836;28;21352;-62
2023/09/13 00:46:08;;;;;;;6.82;4.68;;;;;;;26.86;43.92;98811.00;2073437;28;20411;-62
2023/09/13 00:47:12;;;;;;;5.80;4.18;;;;;;;26.86;44.02;98808.25;2075231;28;20187;-62
2023/09/13 00:48:14;;;;;;;5.13;3.88;;;;;;;26.87;43.81;98806.34;2076284;28;20057;-62
2023/09/13 00:49:16;;;;;;;3.90;3.55;;;;;;;26.85;43.93;98809.31;2076682;28;20085;-62
2023/09/13 00:50:17;;;;;;;4.82;3.47;;;;;;;26.84;44.13;98801.44;2074572;28;20087;-62
2023/09/13 00:51:20;;;;;;;5.35;3.65;;;;;;;26.84;44.16;98802.25;2076132;28;20049;-62
2023/09/13 00:52:22;;;;;;;5.03;4.20;;;;;;;26.88;44.08;98802.56;2074831;28;20103;-62
2023/09/13 00:53:25;;;;;;;4.55;3.83;;;;;;;26.89;43.99;98805.03;2073260;28;20081;-62
2023/09/13 00:54:27;;;;;;;6.78;4.15;;;;;;;26.87;44.01;98800.91;2072810;28;20056;-62
2023/09/13 00:55:29;;;;;;;8.35;4.15;;;;;;;26.88;43.90;98806.09;2074261;28;20380;-62
2023/09/13 00:56:33;;;;;;;4.72;4.18;;;;;;;26.88;44.27;98803.38;2073118;28;20080;-62
2023/09/13 00:57:34;;;;;;;5.15;4.60;;;;;;;26.91;44.28;98805.59;2071393;28;20669;-62
2023/09/13 00:58:36;;;;;;;5.20;3.90;;;;;;;26.91;43.98;98802.03;2070652;28;20128;-62
2023/09/13 00:59:37;;;;;;;5.07;4.20;;;;;;;26.89;44.24;98805.03;2074212;28;20060;-62
2023/09/13 01:00:40;;;;;;;3.60;3.30;;;;;;;26.88;44.20;98797.94;2071070;28;20260;-62
2023/09/13 01:01:41;;;;;;;5.75;3.83;;;;;;;26.85;44.09;98806.59;2071835;28;20053;-62
2023/09/13 01:02:45;;;;;;;7.95;4.32;;;;;;;26.84;43.81;98801.44;2073099;28;20437;-62
2023/09/13 01:03:46;;;;;;;4.05;3.60;;;;;;;26.86;44.01;98789.22;2071726;28;20057;-62
2023/09/13 01:04:48;;;;;;;4.53;4.13;;;;;;;26.85;43.88;98803.88;2071463;28;20453;-62
2023/09/13 01:05:53;;;;;;;4.63;4.25;;;;;;;26.84;44.01;98804.16;2068870;28;20065;-62
2023/09/13 01:06:55;;;;;;;4.75;4.22;;;;;;;26.83;43.81;98802.47;2075069;28;20121;-62
2023/09/13 01:07:56;;;;;;;7.22;4.30;;;;;;;26.82;43.70;98800.84;2073276;28;20472;-62
2023/09/13 01:08:59;;;;;;;4.45;4.05;;;;;;;26.84;43.53;98799.53;2075317;28;20049;-62
2023/09/13 01:09:59;;;;;;;4.22;3.83;;;;;;;26.81;43.74;98801.94;2071263;28;20046;-62
2023/09/13 01:11:01;;;;;;;4.75;4.20;;;;;;;26.79;43.44;98807.63;2074035;28;20140;-62
2023/09/13 01:12:03;;;;;;;5.70;4.05;;;;;;;26.75;43.76;98801.06;2072809;28;20049;-62
2023/09/13 01:13:05;;;;;;;5.82;4.43;;;;;;;26.77;43.63;98806.22;2072483;28;20053;-62
2023/09/13 01:14:06;;;;;;;8.77;4.18;;;;;;;26.84;43.33;98810.41;2070854;28;20057;-62
2023/09/13 01:15:09;;;;;;;8.32;4.00;;;;;;;26.76;43.92;98808.13;2068234;28;20132;-62
2023/09/13 01:16:18;;;;;;;4.72;3.90;;;;;;;26.77;43.84;98812.47;2071250;28;20049;-62
2023/09/13 01:17:28;;;;;;;5.53;4.05;;;;;;;26.73;43.81;98812.19;2072710;28;20069;-62
2023/09/13 01:18:38;;;;;;;7.45;4.32;;;;;;;26.72;43.67;98809.72;2073642;28;20372;-62
2023/09/13 01:19:51;;;;;;;10.77;4.47;;;;;;;26.76;43.78;98805.41;2071349;28;20106;-62
2023/09/13 01:21:09;;;;;;;3.33;3.03;;;;;;;26.73;44.04;98801.28;2071323;28;20661;-62
2023/09/13 01:22:36;;;;;;;6.85;3.63;;;;;;;26.67;43.79;98793.34;2073349;28;20064;-62
2023/09/13 01:23:57;;;;;;;4.35;3.95;;;;;;;26.65;44.02;98796.28;2071614;28;20593;-62
2023/09/13 01:25:22;;;;;;;5.00;3.78;;;;;;;26.62;44.09;98802.25;2071296;28;20119;-62
2023/09/13 01:26:42;;;;;;;6.05;4.57;;;;;;;26.66;43.98;98806.13;2070681;28;20053;-62
2023/09/13 01:27:50;;;;;;;4.57;3.72;;;;;;;26.67;43.82;98801.50;2071530;28;20226;-62
2023/09/13 01:28:54;;;;;;;5.32;4.75;;;;;;;26.66;43.96;98800.69;2068335;28;20989;-62
2023/09/13 01:29:59;;;;;;;6.75;4.05;;;;;;;26.69;43.81;98799.31;2068504;28;20120;-62
2023/09/13 01:31:02;;;;;;;5.63;4.22;;;;;;;26.78;43.38;98797.81;2070267;28;20065;-62
2023/09/13 01:32:05;;;;;;;5.28;4.25;;;;;;;26.78;43.67;98797.81;2066475;28;20049;-62
2023/09/13 01:33:06;;;;;;;5.43;3.80;;;;;;;26.73;44.00;98798.56;2070100;28;20064;-62
2023/09/13 01:34:08;;;;;;;4.10;3.80;;;;;;;26.68;43.84;98795.78;2068629;28;20551;-62
2023/09/13 01:35:09;;;;;;;6.32;4.20;;;;;;;26.69;43.75;98800.16;2067855;28;20175;-62
2023/09/13 01:36:11;;;;;;;5.07;3.88;;;;;;;26.70;43.87;98790.91;2070999;28;20223;-62
2023/09/13 01:37:12;;;;;;;7.63;4.35;;;;;;;26.73;43.85;98795.03;2071897;28;21377;-62
2023/09/13 01:38:14;;;;;;;4.32;3.92;;;;;;;26.75;43.89;98792.88;2073328;28;20064;-62
2023/09/13 01:39:15;;;;;;;11.82;4.25;;;;;;;26.74;44.09;98792.06;2066879;28;20053;-62
2023/09/13 01:40:17;;;;;;;5.82;4.60;;;;;;;26.76;43.53;98789.09;2069714;28;20088;-62
2023/09/13 01:41:23;;;;;;;5.10;3.97;;;;;;;26.74;43.72;98791.22;2068624;28;20144;-61
2023/09/13 01:42:25;;;;;;;6.55;4.05;;;;;;;26.74;43.48;98791.22;2068714;28;20137;-62
2023/09/13 01:43:27;;;;;;;5.35;3.53;;;;;;;26.73;43.94;98795.03;2068368;28;20050;-62
2023/09/13 01:44:31;;;;;;;4.72;4.28;;;;;;;26.68;43.60;98790.34;2067427;28;20199;-62
2023/09/13 01:45:33;;;;;;;3.97;3.67;;;;;;;26.70;43.52;98793.63;2069106;28;20267;-62
2023/09/13 01:46:39;;;;;;;6.25;4.13;;;;;;;26.77;43.85;98795.34;2070769;28;20053;-62
2023/09/13 01:47:42;;;;;;;6.20;4.43;;;;;;;26.77;43.48;98790.72;2071160;28;20056;-62
2023/09/13 01:48:45;;;;;;;5.32;3.88;;;;;;;26.76;43.87;98786.38;2073287;28;20567;-62
2023/09/13 01:49:47;;;;;;;4.57;3.75;;;;;;;26.73;43.77;98784.97;2071501;28;20049;-62
2023/09/13 01:50:49;;;;;;;4.20;3.58;;;;;;;26.74;43.77;98783.06;2070359;28;20053;-62
2023/09/13 01:51:51;;;;;;;4.22;3.70;;;;;;;26.69;43.88;98789.28;2069099;28;20061;-62
2023/09/13 01:52:52;;;;;;;6.78;5.25;;;;;;;26.73;43.85;98773.28;2075283;28;20113;-62
2023/09/13 01:53:55;;;;;;;5.13;3.75;;;;;;;26.74;43.70;98780.34;2068161;28;20401;-62
2023/09/13 01:54:56;;;;;;;4.15;3.75;;;;;;;26.74;43.27;98774.91;2076350;28;20053;-62
2023/09/13 01:55:58;;;;;;;4.30;3.78;;;;;;;26.76;43.68;98771.94;2075631;28;20107;-62
2023/09/13 01:56:58;;;;;;;4.70;3.65;;;;;;;26.74;43.33;98774.91;2074804;28;20056;-62
2023/09/13 01:58:00;;;;;;;5.05;3.95;;;;;;;26.72;43.80;98766.19;2070101;28;20156;-62
2023/09/13 01:59:01;;;;;;;10.48;4.38;;;;;;;26.73;43.54;98763.19;2075061;28;20053;-62
2023/09/13 02:00:06;;;;;;;5.13;4.28;;;;;;;26.72;43.42;98760.75;2070914;28;20568;-62
2023/09/13 02:01:07;;;;;;;4.88;4.20;;;;;;;26.70;43.81;98760.19;2074490;28;20057;-62
2023/09/13 02:02:09;;;;;;;4.82;4.32;;;;;;;26.71;43.56;98769.97;2074130;28;20084;-62
2023/09/13 02:03:09;;;;;;;4.57;4.18;;;;;;;26.70;43.72;98762.91;2070962;28;20389;-62
2023/09/13 02:04:11;;;;;;;5.07;3.67;;;;;;;26.70;43.87;98771.88;2072168;28;20073;-62
2023/09/13 02:05:13;;;;;;;5.25;4.53;;;;;;;26.68;43.55;98762.31;2076301;28;20060;-62
2023/09/13 02:06:14;;;;;;;5.55;4.18;;;;;;;26.70;43.64;98763.72;2070522;28;20053;-62
2023/09/13 02:07:16;;;;;;;6.35;5.75;;;;;;;26.73;43.77;98773.28;2070971;28;20132;-62
2023/09/13 02:08:17;;;;;;;6.60;4.68;;;;;;;26.69;43.80;98767.53;2072336;28;20057;-62
2023/09/13 02:09:19;;;;;;;4.68;3.75;;;;;;;26.69;43.99;98769.41;2075763;28;20050;-62
2023/09/13 02:10:20;;;;;;;6.30;4.07;;;;;;;26.68;43.55;98767.75;2071832;28;20045;-62
2023/09/13 02:11:22;;;;;;;4.97;3.55;;;;;;;26.66;43.94;98769.91;2067187;28;20160;-62
2023/09/13 02:12:22;;;;;;;4.90;4.38;;;;;;;26.60;43.64;98763.56;2067697;28;20685;-62
2023/09/13 02:13:24;;;;;;;6.18;4.55;;;;;;;26.60;43.97;98768.19;2064989;28;20148;-62
2023/09/13 02:14:25;;;;;;;4.13;3.78;;;;;;;26.61;44.24;98769.88;2065642;28;20053;-62
2023/09/13 02:15:28;;;;;;;5.82;4.38;;;;;;;26.59;43.98;98767.38;2071543;28;20156;-62
2023/09/13 02:16:29;;;;;;;4.65;4.25;;;;;;;26.57;44.19;98774.16;2072626;28;20368;-62
2023/09/13 02:17:32;;;;;;;5.05;3.95;;;;;;;26.56;43.90;98770.63;2072421;28;20522;-62
2023/09/13 02:18:33;;;;;;;5.93;5.05;;;;;;;26.54;44.08;98763.78;2069725;28;20073;-62
2023/09/13 02:19:35;;;;;;;5.97;5.05;;;;;;;26.51;44.27;98771.34;2071358;28;20780;-62
2023/09/13 02:20:35;;;;;;;6.72;4.25;;;;;;;26.55;44.01;98768.13;2068793;28;20049;-62
2023/09/13 02:21:37;;;;;;;5.05;4.53;;;;;;;26.55;44.30;98770.84;2072650;28;20140;-62
2023/09/13 02:22:38;;;;;;;5.05;3.45;;;;;;;26.55;44.33;98768.13;2069468;28;20061;-62
2023/09/13 02:23:41;;;;;;;7.18;4.18;;;;;;;26.55;44.12;98765.41;2070807;28;20464;-62
2023/09/13 02:24:42;;;;;;;6.75;4.18;;;;;;;26.54;44.15;98761.06;2070192;28;20496;-62
2023/09/13 02:25:45;;;;;;;6.13;4.38;;;;;;;26.53;44.13;98762.97;2071000;28;20049;-62
2023/09/13 02:26:46;;;;;;;5.00;3.78;;;;;;;26.52;44.10;98762.16;2070486;28;20089;-62
2023/09/13 02:27:48;;;;;;;6.20;4.40;;;;;;;26.53;44.06;98762.97;2073511;28;20519;-62
2023/09/13 02:28:49;;;;;;;4.57;4.18;;;;;;;26.54;44.34;98758.34;2068690;28;20076;-62
2023/09/13 02:29:50;;;;;;;4.03;3.65;;;;;;;26.55;44.21;98759.97;2071706;28;20220;-62
2023/09/13 02:30:53;;;;;;;8.80;4.55;;;;;;;26.55;44.29;98762.69;2070462;28;20140;-62
2023/09/13 02:31:54;;;;;;;7.53;4.95;;;;;;;26.52;43.99;98764.88;2071503;28;20145;-62
2023/09/13 02:32:56;;;;;;;4.95;4.30;;;;;;;26.50;44.38;98761.56;2068849;28;20135;-62
2023/09/13 02:33:56;;;;;;;6.22;4.75;;;;;;;26.49;44.54;98765.34;2072852;28;20064;-62
2023/09/13 02:34:58;;;;;;;4.13;3.65;;;;;;;26.48;44.11;98760.97;2074119;28;20164;-62
2023/09/13 02:36:00;;;;;;;4.55;4.13;;;;;;;26.47;44.40;98764.75;2072084;28;20204;-62
2023/09/13 02:37:00;;;;;;;5.00;4.18;;;;;;;26.45;44.39;98760.66;2070962;28;20076;-62
2023/09/13 02:38:02;;;;;;;8.38;3.95;;;;;;;26.36;44.52;98768.41;2068780;28;20041;-62
2023/09/13 02:39:03;;;;;;;4.55;4.13;;;;;;;26.40;44.07;98769.56;2073901;28;20551;-62
2023/09/13 02:40:06;;;;;;;5.18;4.40;;;;;;;26.44;44.21;98767.13;2071573;28;20049;-62
2023/09/13 02:41:07;;;;;;;5.68;4.35;;;;;;;26.49;44.37;98775.38;2071908;28;21016;-62
2023/09/13 02:42:08;;;;;;;9.52;4.30;;;;;;;26.48;43.97;98766.41;2068050;28;21684;-62
2023/09/13 02:43:10;;;;;;;3.92;3.63;;;;;;;26.49;44.51;98761.78;2068418;28;20124;-62
2023/09/13 02:44:11;;;;;;;5.78;4.22;;;;;;;26.48;44.47;98774.56;2068945;28;20060;-62
2023/09/13 02:45:13;;;;;;;6.68;4.20;;;;;;;26.46;44.49;98765.81;2067088;28;20435;-62
2023/09/13 02:46:15;;;;;;;5.45;4.80;;;;;;;26.40;44.64;98766.84;2072394;28;20143;-62
2023/09/13 02:47:17;;;;;;;5.53;3.95;;;;;;;26.36;44.67;98767.59;2072028;28;20057;-62
2023/09/13 02:48:18;;;;;;;6.75;4.05;;;;;;;26.28;44.67;98763.41;2065391;28;20053;-61
2023/09/13 02:49:21;;;;;;;4.60;3.58;;;;;;;26.25;44.62;98770.19;2071133;28;20136;-61
2023/09/13 02:50:21;;;;;;;7.97;3.75;;;;;;;26.25;44.63;98770.19;2067271;28;20084;-61
2023/09/13 02:51:23;;;;;;;5.53;4.25;;;;;;;26.27;44.88;98767.19;2071286;28;20144;-62
2023/09/13 02:52:28;;;;;;;4.82;4.30;;;;;;;26.31;44.67;98771.06;2070254;28;20068;-62
2023/09/13 02:53:31;;;;;;;7.47;4.53;;;;;;;26.34;44.62;98761.59;2071408;28;20057;-62
2023/09/13 02:54:32;;;;;;;4.47;4.07;;;;;;;26.35;44.97;98769.47;2066397;28;20058;-63
2023/09/13 02:55:34;;;;;;;5.15;4.55;;;;;;;26.37;44.77;98770.06;2067918;28;20602;-62
2023/09/13 02:56:34;;;;;;;5.78;4.50;;;;;;;26.33;44.86;98763.50;2067842;28;20077;-62
2023/09/13 02:57:36;;;;;;;12.95;4.32;;;;;;;26.28;45.32;98764.22;2070186;28;20192;-62
2023/09/13 02:58:37;;;;;;;5.55;4.18;;;;;;;26.26;45.23;98762.84;2071374;28;20060;-62
2023/09/13 02:59:38;;;;;;;7.55;4.93;;;;;;;26.23;45.46;98768.78;2070874;28;20128;-62
2023/09/13 03:00:43;;;;;;;6.53;4.15;;;;;;;26.21;45.06;98768.19;2068024;28;20409;-62
2023/09/13 03:01:45;;;;;;;4.75;4.32;;;;;;;26.18;45.23;98769.50;2069235;28;20144;-62
2023/09/13 03:02:47;;;;;;;5.55;4.75;;;;;;;26.16;45.26;98771.69;2071943;28;21101;-62
2023/09/13 03:03:48;;;;;;;4.85;4.35;;;;;;;26.17;45.45;98769.78;2066866;28;20049;-62
2023/09/13 03:04:51;;;;;;;5.63;3.92;;;;;;;26.18;45.49;98772.25;2071423;28;20125;-62
2023/09/13 03:05:52;;;;;;;4.13;3.72;;;;;;;26.16;45.59;98768.13;2067642;28;20140;-62
2023/09/13 03:06:54;;;;;;;8.25;4.38;;;;;;;26.16;45.18;98773.56;2071480;28;20049;-62
2023/09/13 03:07:56;;;;;;;6.15;3.67;;;;;;;26.15;45.14;98767.31;2069906;28;20065;-62
2023/09/13 03:08:58;;;;;;;4.43;4.03;;;;;;;26.13;45.29;98768.63;2073114;28;20048;-62
2023/09/13 03:09:59;;;;;;;5.20;3.90;;;;;;;26.10;45.32;98769.94;2073308;28;20423;-62
2023/09/13 03:11:12;;;;;;;7.70;4.15;;;;;;;26.08;45.22;98766.66;2068704;28;20077;-62
2023/09/13 03:12:13;;;;;;;7.22;4.50;;;;;;;26.07;45.74;98768.53;2070878;28;20069;-62
2023/09/13 03:13:15;;;;;;;4.72;4.22;;;;;;;26.08;45.60;98762.06;2071442;28;20185;-62
2023/09/13 03:14:16;;;;;;;8.93;4.85;;;;;;;26.05;45.68;98757.13;2071825;28;20057;-62
2023/09/13 03:15:18;;;;;;;4.70;4.20;;;;;;;26.05;45.14;98759.03;2073750;28;20235;-61
2023/09/13 03:16:20;;;;;;;6.53;3.95;;;;;;;26.01;45.45;98758.69;2074899;28;20064;-62
2023/09/13 03:17:23;;;;;;;4.38;3.97;;;;;;;26.01;45.13;98757.84;2071733;28;20053;-62
2023/09/13 03:18:24;;;;;;;4.45;4.05;;;;;;;25.98;45.41;98755.63;2071521;28;20415;-62
2023/09/13 03:19:26;;;;;;;6.20;4.20;;;;;;;25.95;45.65;98756.13;2073343;28;20080;-62
2023/09/13 03:20:27;;;;;;;4.07;3.78;;;;;;;25.92;45.21;98757.47;2071503;28;20121;-62
2023/09/13 03:21:29;;;;;;;4.38;3.97;;;;;;;25.90;45.26;98753.34;2070782;28;20077;-62
2023/09/13 03:22:29;;;;;;;6.70;4.07;;;;;;;25.87;45.50;98757.38;2070078;28;20054;-62
2023/09/13 03:23:32;;;;;;;5.60;3.75;;;;;;;25.91;45.19;98754.97;2073878;28;20769;-62
2023/09/13 03:24:33;;;;;;;6.40;4.47;;;;;;;25.91;45.59;98758.53;2070065;28;20408;-62
2023/09/13 03:25:35;;;;;;;6.15;4.28;;;;;;;25.88;45.35;98760.91;2075781;28;20156;-62
2023/09/13 03:26:35;;;;;;;6.20;4.78;;;;;;;25.90;45.64;98758.78;2070590;28;20053;-61
2023/09/13 03:27:37;;;;;;;5.32;4.82;;;;;;;25.88;45.48;98758.19;2070027;28;20198;-62
2023/09/13 03:28:38;;;;;;;4.68;4.03;;;;;;;25.85;45.70;98759.50;2068873;28;20090;-62
2023/09/13 03:29:40;;;;;;;4.80;3.95;;;;;;;25.86;45.44;98763.91;2071048;28;20049;-62
2023/09/13 03:30:41;;;;;;;5.85;4.80;;;;;;;25.82;45.29;98759.97;2070369;28;20053;-62
2023/09/13 03:31:43;;;;;;;4.50;3.75;;;;;;;25.79;45.34;98744.19;2072700;28;20087;-62
2023/09/13 03:32:45;;;;;;;4.95;4.07;;;;;;;25.81;45.42;98747.47;2073389;28;20060;-62
2023/09/13 03:33:49;;;;;;;7.93;4.18;;;;;;;25.82;45.30;98746.41;2070853;28;20461;-62
2023/09/13 03:34:51;;;;;;;5.22;4.28;;;;;;;25.84;45.05;98744.28;2068729;28;20404;-62
2023/09/13 03:35:54;;;;;;;6.15;4.20;;;;;;;25.86;45.50;98747.59;2069915;28;20057;-62
2023/09/13 03:36:55;;;;;;;5.20;4.28;;;;;;;25.91;44.97;98755.81;2073082;28;20053;-62
2023/09/13 03:37:56;;;;;;;5.85;3.97;;;;;;;25.96;44.85;98745.00;2070491;28;20057;-62
2023/09/13 03:38:57;;;;;;;5.57;4.07;;;;;;;26.03;44.86;98753.00;2074124;28;20045;-62
2023/09/13 03:39:59;;;;;;;6.30;4.55;;;;;;;26.08;44.99;98751.19;2068100;28;20057;-62
2023/09/13 03:41:03;;;;;;;5.65;4.40;;;;;;;26.13;44.71;98753.13;2068149;28;20061;-62
2023/09/13 03:42:05;;;;;;;5.30;4.18;;;;;;;26.15;44.70;98748.28;2072557;28;20057;-62
2023/09/13 03:43:06;;;;;;;4.85;4.35;;;;;;;26.13;44.70;98752.31;2069107;28;20053;-62
2023/09/13 03:44:08;;;;;;;5.30;4.15;;;;;;;26.02;44.70;98752.19;2067851;28;20132;-62
2023/09/13 03:45:10;;;;;;;5.13;4.00;;;;;;;25.95;45.23;98756.97;2068505;28;20053;-62
2023/09/13 03:46:11;;;;;;;4.45;4.05;;;;;;;25.96;45.04;98749.63;2071069;28;20106;-62
2023/09/13 03:47:12;;;;;;;7.30;4.00;;;;;;;25.97;44.74;98754.81;2069143;28;21140;-62
2023/09/13 03:48:15;;;;;;;7.28;4.93;;;;;;;25.98;45.24;98744.78;2069322;28;20057;-62
2023/09/13 03:49:16;;;;;;;7.05;3.47;;;;;;;25.96;45.26;98746.91;2067434;28;20049;-62
2023/09/13 03:50:17;;;;;;;7.35;4.50;;;;;;;25.88;44.84;98752.75;2071017;28;20061;-62
2023/09/13 03:51:19;;;;;;;8.23;4.18;;;;;;;25.70;45.52;98745.66;2071094;28;20168;-64
2023/09/13 03:52:20;;;;;;;5.93;4.10;;;;;;;25.69;45.56;98741.31;2068271;28;20057;-63
2023/09/13 03:53:21;;;;;;;5.45;4.95;;;;;;;25.50;45.52;98748.88;2066847;28;20431;-63
2023/09/13 03:54:23;;;;;;;4.47;4.07;;;;;;;25.54;46.04;98750.03;2067286;28;20123;-64
2023/09/13 03:55:24;;;;;;;6.78;5.05;;;;;;;25.59;45.47;98753.66;2068892;28;20102;-63
2023/09/13 03:56:26;;;;;;;5.60;4.65;;;;;;;25.66;45.55;98758.94;2070239;28;20057;-63
2023/09/13 03:57:27;;;;;;;4.90;4.15;;;;;;;25.71;45.55;98760.88;2071053;28;20061;-63
2023/09/13 03:58:28;;;;;;;5.65;3.95;;;;;;;25.73;45.26;98764.19;2071688;28;20053;-63
2023/09/13 03:59:29;;;;;;;9.32;4.30;;;;;;;25.69;45.40;98768.47;2072221;28;20986;-63
2023/09/13 04:00:33;;;;;;;4.43;3.97;;;;;;;25.70;45.09;98761.97;2070366;28;20132;-63
2023/09/13 04:01:34;;;;;;;6.95;4.47;;;;;;;25.69;45.67;98763.88;2071280;28;20117;-63
2023/09/13 04:02:36;;;;;;;5.50;5.00;;;;;;;25.72;45.32;98774.25;2068891;28;20069;-63
2023/09/13 04:03:38;;;;;;;5.32;4.68;;;;;;;25.72;45.55;98766.09;2070112;28;20072;-63
2023/09/13 04:04:40;;;;;;;5.32;4.70;;;;;;;25.71;45.12;98775.28;2070827;28;20072;-63
2023/09/13 04:05:41;;;;;;;4.82;4.30;;;;;;;25.67;45.31;98773.34;2069087;28;20065;-63
2023/09/13 04:06:44;;;;;;;5.30;4.55;;;;;;;25.67;45.46;98776.88;2070743;28;20060;-63
2023/09/13 04:07:45;;;;;;;5.65;4.28;;;;;;;25.59;45.62;98778.09;2071519;28;20500;-63
2023/09/13 04:08:47;;;;;;;5.80;4.68;;;;;;;25.44;45.71;98774.31;2072378;28;20184;-63
2023/09/13 04:09:47;;;;;;;6.28;4.20;;;;;;;25.45;45.91;98775.94;2071511;28;20057;-63
2023/09/13 04:10:49;;;;;;;4.28;3.88;;;;;;;25.31;46.65;98773.53;2071168;28;20189;-63
2023/09/13 04:11:50;;;;;;;6.05;4.25;;;;;;;25.34;46.65;98781.19;2067000;28;20049;-63
2023/09/13 04:12:51;;;;;;;4.35;3.63;;;;;;;25.32;46.27;98780.59;2062544;28;21341;-63
2023/09/13 04:13:53;;;;;;;4.65;4.20;;;;;;;25.35;46.67;98779.28;2065840;28;20132;-63
2023/09/13 04:14:54;;;;;;;5.68;4.45;;;;;;;25.37;46.63;98779.88;2067918;28;20453;-63
2023/09/13 04:15:56;;;;;;;7.30;3.75;;;;;;;25.40;46.09;98784.81;2070128;28;20424;-63
2023/09/13 04:16:57;;;;;;;8.23;4.88;;;;;;;25.39;46.59;98780.47;2075285;28;20546;-63
2023/09/13 04:17:58;;;;;;;5.95;4.28;;;;;;;25.40;46.56;98782.91;2075923;28;20223;-63
2023/09/13 04:19:01;;;;;;;5.72;4.60;;;;;;;25.38;46.25;98782.38;2074536;28;20515;-63
2023/09/13 04:20:02;;;;;;;6.50;4.40;;;;;;;25.39;46.68;98783.19;2075657;28;20056;-63
2023/09/13 04:21:04;;;;;;;9.25;4.43;;;;;;;25.41;46.44;98772.91;2073690;28;20053;-63
2023/09/13 04:22:05;;;;;;;8.35;5.28;;;;;;;25.48;45.96;98784.41;2078149;28;20060;-63
2023/09/13 04:23:07;;;;;;;5.18;4.68;;;;;;;25.47;45.96;98785.50;2078296;28;20059;-63
2023/09/13 04:24:08;;;;;;;7.07;4.13;;;;;;;25.49;45.93;98783.38;2075114;28;20060;-63
2023/09/13 04:25:10;;;;;;;6.30;4.60;;;;;;;25.53;46.18;98791.84;2075529;28;20126;-63
2023/09/13 04:26:11;;;;;;;5.00;4.00;;;;;;;25.51;46.05;98797.50;2070095;28;20158;-63
2023/09/13 04:27:13;;;;;;;5.65;4.53;;;;;;;25.50;46.08;98798.59;2070944;28;20483;-63
2023/09/13 04:28:14;;;;;;;4.75;4.22;;;;;;;25.51;45.84;98805.66;2071460;28;20085;-63
2023/09/13 04:29:15;;;;;;;6.75;4.47;;;;;;;25.53;46.04;98802.69;2072203;28;20137;-64
2023/09/13 04:30:16;;;;;;;8.52;4.32;;;;;;;25.55;45.76;98811.44;2068863;28;20061;-63
2023/09/13 04:31:18;;;;;;;5.63;4.55;;;;;;;25.59;45.91;98816.13;2072112;28;20866;-63
2023/09/13 04:32:19;;;;;;;7.40;5.57;;;;;;;25.61;45.86;98811.28;2073312;28;20155;-63
2023/09/13 04:33:46;;;;;;;7.30;4.18;;;;;;;25.59;45.48;98812.59;2071266;28;20084;-64
2023/09/13 04:34:48;;;;;;;7.97;4.50;;;;;;;25.60;46.01;98809.63;2064670;28;20488;-63
2023/09/13 04:35:51;;;;;;;5.47;4.47;;;;;;;25.57;45.68;98815.53;2069574;28;20146;-63
2023/09/13 04:36:54;;;;;;;4.10;3.70;;;;;;;25.59;46.09;98813.41;2072234;28;20125;-63
2023/09/13 04:37:56;;;;;;;5.75;4.30;;;;;;;25.61;45.83;98822.13;2070634;28;20049;-63
2023/09/13 04:38:56;;;;;;;5.78;4.57;;;;;;;25.63;45.58;98820.00;2071409;28;20042;-63
2023/09/13 04:39:58;;;;;;;7.20;4.43;;;;;;;25.60;45.92;98819.66;2076508;28;20100;-63
2023/09/13 04:40:59;;;;;;;9.60;5.22;;;;;;;25.58;46.07;98816.38;2073598;28;21158;-63
2023/09/13 04:42:02;;;;;;;4.97;4.47;;;;;;;25.59;45.69;98824.25;2070836;28;21005;-63
2023/09/13 04:43:23;;;;;;;7.07;4.82;;;;;;;25.66;45.65;98820.56;2073207;28;20057;-63
2023/09/13 04:44:25;;;;;;;5.90;4.53;;;;;;;25.72;45.67;98834.00;2071948;28;20041;-64
2023/09/13 04:45:26;;;;;;;6.30;4.00;;;;;;;25.76;45.43;98839.75;2072633;28;20054;-63
2023/09/13 04:46:26;;;;;;;4.75;4.35;;;;;;;25.80;44.95;98835.50;2071413;28;20153;-63
2023/09/13 04:47:28;;;;;;;5.35;4.47;;;;;;;25.80;45.53;98832.78;2070778;28;20056;-63
2023/09/13 04:48:29;;;;;;;6.25;4.18;;;;;;;25.81;45.03;98826.28;2070825;28;20136;-63
2023/09/13 04:49:31;;;;;;;6.38;4.90;;;;;;;25.76;45.05;98829.72;2072477;28;20243;-63
2023/09/13 04:50:33;;;;;;;4.63;4.22;;;;;;;25.81;45.42;98837.97;2070614;28;20056;-63
2023/09/13 04:51:35;;;;;;;5.00;4.07;;;;;;;25.78;45.47;98834.91;2070856;28;20090;-63
2023/09/13 04:52:36;;;;;;;4.55;4.15;;;;;;;25.80;44.98;98841.75;2070184;28;20053;-63
2023/09/13 04:53:38;;;;;;;12.07;4.45;;;;;;;25.80;45.48;98851.81;2069923;28;20049;-63
2023/09/13 04:54:39;;;;;;;5.15;4.53;;;;;;;25.79;45.20;98850.13;2071094;28;20056;-63